createdAt,value
2023-04-17T00:03:02.534Z,15.68
2023-04-17T00:08:07.867Z,17.35
2023-04-17T00:13:11.280Z,16.77
2023-04-17T00:18:14.986Z,18.77
2023-04-17T00:23:19.772Z,17.10
2023-04-17T00:28:23.304Z,18.65
2023-04-17T00:33:26.711Z,18.38
2023-04-17T00:38:31.834Z,18.00
2023-04-17T00:43:35.381Z,17.40
2023-04-17T00:48:41.001Z,17.58
2023-04-17T00:53:46.543Z,19.20
2023-04-17T00:58:50.611Z,18.05
2023-04-17T01:03:55.156Z,18.48
2023-04-17T01:09:00.719Z,18.88
2023-04-17T01:14:04.142Z,20.35
2023-04-17T01:19:08.582Z,21.45
2023-04-17T01:24:13.348Z,20.58
2023-04-17T01:29:16.946Z,18.67
2023-04-17T01:34:20.352Z,18.95
2023-04-17T01:39:25.602Z,18.92
2023-04-17T01:44:29.036Z,21.08
2023-04-17T01:49:32.538Z,20.00
2023-04-17T01:54:37.592Z,19.55
2023-04-17T01:59:41.113Z,18.90
2023-04-17T02:04:44.601Z,20.10
2023-04-17T02:09:49.412Z,20.02
2023-04-17T02:14:52.879Z,19.25
2023-04-17T02:19:56.574Z,20.85
2023-04-17T02:25:01.342Z,20.00
2023-04-17T02:30:05.582Z,19.80
2023-04-17T02:35:10.058Z,18.75
2023-04-17T02:40:15.986Z,18.80
2023-04-17T02:45:19.406Z,18.85
2023-04-17T02:50:22.843Z,18.73
2023-04-17T02:55:27.650Z,19.00
2023-04-17T03:00:31.191Z,19.13
2023-04-17T03:05:34.702Z,18.20
2023-04-17T03:10:39.491Z,21.25
2023-04-17T03:15:43.356Z,20.75
2023-04-17T03:20:46.890Z,21.45
2023-04-17T03:25:52.391Z,21.48
2023-04-17T03:30:58.003Z,22.45
2023-04-17T03:36:01.489Z,23.65
2023-04-17T03:41:07.054Z,22.30
2023-04-17T03:46:10.818Z,22.33
2023-04-17T03:51:14.545Z,23.80
2023-04-17T03:56:19.581Z,22.83
2023-04-17T04:01:23.633Z,24.95
2023-04-17T04:06:29.976Z,23.33
2023-04-17T04:11:34.818Z,24.40
2023-04-17T04:16:38.516Z,25.75
2023-04-17T04:21:43.596Z,26.80
2023-04-17T04:26:49.768Z,24.52
2023-04-17T04:31:53.423Z,25.48
2023-04-17T04:36:56.937Z,24.27
2023-04-17T04:42:06.759Z,25.40
2023-04-17T04:47:10.429Z,24.50
2023-04-17T04:52:13.934Z,23.85
2023-04-17T04:57:18.750Z,23.80
2023-04-17T05:02:22.380Z,23.35
2023-04-17T05:07:26.033Z,24.20
2023-04-17T05:12:30.815Z,24.67
2023-04-17T05:17:34.551Z,23.98
2023-04-17T05:22:38.012Z,24.80
2023-04-17T05:27:42.841Z,25.05
2023-04-17T05:32:46.669Z,24.55
2023-04-17T05:37:50.232Z,25.30
2023-04-17T05:42:55.236Z,25.05
2023-04-17T05:47:58.715Z,24.08
2023-04-17T05:53:02.389Z,23.35
2023-04-17T05:58:16.870Z,22.80
2023-04-17T06:03:27.258Z,20.20
2023-04-17T06:08:30.889Z,20.30
2023-04-17T06:13:35.635Z,19.42
2023-04-17T06:18:38.990Z,18.15
2023-04-17T06:23:42.436Z,19.00
2023-04-17T06:28:47.173Z,18.05
2023-04-17T06:33:51.158Z,17.77
2023-04-17T06:38:54.613Z,19.35
2023-04-17T06:43:59.692Z,18.50
2023-04-17T06:49:03.109Z,19.00
2023-04-17T06:54:06.580Z,18.90
2023-04-17T06:59:11.737Z,16.20
2023-04-17T07:04:17.935Z,17.80
2023-04-17T07:09:21.731Z,16.90
2023-04-17T07:14:26.505Z,16.45
2023-04-17T07:19:30.406Z,17.10
2023-04-17T07:24:35.100Z,16.45
2023-04-17T07:29:39.946Z,16.50
2023-04-17T07:34:43.485Z,15.90
2023-04-17T07:39:50.488Z,15.18
2023-04-17T07:44:55.322Z,15.35
2023-04-17T07:49:58.956Z,14.00
2023-04-17T07:55:02.345Z,14.32
2023-04-17T08:00:10.530Z,14.18
2023-04-17T08:05:14.024Z,14.95
2023-04-17T08:10:17.772Z,14.50
2023-04-17T08:15:23.075Z,16.50
2023-04-17T08:20:27.277Z,15.00
2023-04-17T08:25:30.704Z,15.27
2023-04-17T08:30:35.743Z,15.98
2023-04-17T08:35:39.140Z,16.08
2023-04-17T08:40:46.588Z,15.20
2023-04-17T08:45:55.641Z,15.10
2023-04-17T08:50:59.479Z,15.48
2023-04-17T08:56:08.340Z,14.23
2023-04-17T09:01:15.862Z,15.45
2023-04-17T09:06:19.868Z,15.02
2023-04-17T09:11:23.293Z,15.50
2023-04-17T09:16:29.259Z,15.55
2023-04-17T09:21:32.680Z,16.98
2023-04-17T09:26:37.121Z,21.42
2023-04-17T09:31:43.526Z,17.20
2023-04-17T09:36:47.867Z,20.80
2023-04-17T09:41:52.236Z,19.88
2023-04-17T09:46:57.814Z,18.77
2023-04-17T09:52:02.010Z,19.13
2023-04-17T09:57:08.569Z,21.45
2023-04-17T10:02:14.818Z,19.98
2023-04-17T10:07:18.783Z,19.75
2023-04-17T10:12:22.669Z,20.75
2023-04-17T10:17:31.652Z,21.70
2023-04-17T10:22:41.136Z,21.80
2023-04-17T10:27:46.282Z,20.08
2023-04-17T10:33:25.717Z,19.65
2023-04-17T10:38:36.697Z,18.65
2023-04-17T10:43:45.951Z,19.92
2023-04-17T10:48:52.978Z,18.02
2023-04-17T10:53:57.704Z,17.42
2023-04-17T10:59:03.479Z,17.90
2023-04-17T11:04:09.430Z,16.27
2023-04-17T11:09:13.039Z,16.42
2023-04-17T11:14:17.965Z,16.50
2023-04-17T11:19:24.410Z,16.85
2023-04-17T11:24:29.570Z,16.30
2023-04-17T11:29:33.246Z,16.73
2023-04-17T11:34:38.656Z,15.13
2023-04-17T11:39:43.916Z,15.40
2023-04-17T11:44:47.611Z,15.05
2023-04-17T11:49:53.210Z,13.10
2023-04-17T11:54:59.363Z,12.45
2023-04-17T12:00:14.079Z,11.73
2023-04-17T12:05:19.397Z,12.15
2023-04-17T12:10:22.855Z,11.20
2023-04-17T12:15:27.149Z,11.00
2023-04-17T12:20:32.364Z,11.50
2023-04-17T12:25:35.962Z,11.27
2023-04-17T12:30:40.620Z,11.32
2023-04-17T12:35:45.624Z,12.57
2023-04-17T12:40:49.007Z,11.23
2023-04-17T12:45:54.096Z,11.40
2023-04-17T12:50:59.465Z,12.82
2023-04-17T12:56:03.941Z,12.15
2023-04-17T13:01:07.428Z,11.20
2023-04-17T13:06:12.387Z,13.70
2023-04-17T13:11:16.270Z,10.23
2023-04-17T13:16:19.689Z,10.40
2023-04-17T13:21:24.390Z,10.60
2023-04-17T13:26:27.821Z,9.63
2023-04-17T13:31:31.324Z,9.50
2023-04-17T13:36:36.255Z,9.77
2023-04-17T13:41:39.955Z,10.00
2023-04-17T13:46:44.174Z,9.10
2023-04-17T13:51:49.067Z,9.63
2023-04-17T13:56:54.270Z,9.27
2023-04-17T14:01:57.910Z,8.90
2023-04-17T14:07:02.809Z,8.55
2023-04-17T14:12:06.482Z,8.25
2023-04-17T14:17:09.908Z,7.53
2023-04-17T14:22:14.715Z,7.15
2023-04-17T14:27:18.140Z,7.13
2023-04-17T14:32:21.602Z,7.32
2023-04-17T14:37:26.464Z,8.32
2023-04-17T14:42:29.923Z,8.88
2023-04-17T14:47:34.546Z,9.18
2023-04-17T14:52:39.674Z,9.40
2023-04-17T14:57:43.622Z,9.20
2023-04-17T15:02:47.431Z,7.78
2023-04-17T15:07:52.384Z,8.77
2023-04-17T15:13:00.190Z,8.55
2023-04-17T15:18:03.861Z,8.65
2023-04-17T15:23:08.611Z,8.88
2023-04-17T15:28:12.492Z,8.00
2023-04-17T15:33:16.034Z,7.10
2023-04-17T15:38:20.935Z,6.75
2023-04-17T15:43:24.507Z,6.60
2023-04-17T15:48:27.923Z,5.78
2023-04-17T15:53:34.064Z,5.97
2023-04-17T15:58:37.471Z,6.53
2023-04-17T16:03:42.990Z,7.63
2023-04-17T16:08:48.044Z,8.07
2023-04-17T16:13:51.406Z,10.68
2023-04-17T16:18:54.799Z,10.13
2023-04-17T16:23:59.649Z,10.43
2023-04-17T16:29:03.176Z,10.27
2023-04-17T16:34:06.559Z,10.60
2023-04-17T16:39:11.517Z,10.95
2023-04-17T16:44:15.196Z,10.20
2023-04-17T16:49:18.671Z,9.93
2023-04-17T16:54:24.466Z,11.90
2023-04-17T16:59:28.134Z,11.35
2023-04-17T17:04:31.841Z,10.05
2023-04-17T17:09:37.254Z,11.02
2023-04-17T17:14:40.918Z,10.90
2023-04-17T17:19:47.386Z,11.07
2023-04-17T17:24:52.204Z,10.07
2023-04-17T17:29:57.841Z,9.30
2023-04-17T17:35:02.783Z,8.55
2023-04-17T17:40:09.528Z,9.20
2023-04-17T17:45:13.231Z,7.72
2023-04-17T17:50:16.746Z,8.95
2023-04-17T17:55:22.259Z,9.25
2023-04-17T18:00:25.891Z,9.30
2023-04-17T18:05:29.385Z,11.15
2023-04-17T18:10:34.673Z,10.48
2023-04-17T18:15:38.076Z,18.48
2023-04-17T18:20:41.493Z,13.50
2023-04-17T18:25:46.293Z,12.23
2023-04-17T18:30:49.804Z,12.73
2023-04-17T18:35:53.342Z,13.00
2023-04-17T18:40:59.477Z,12.10
2023-04-17T18:46:04.584Z,13.40
2023-04-17T18:51:12.552Z,12.85
2023-04-17T18:56:18.000Z,13.70
2023-04-17T19:01:21.489Z,13.05
2023-04-17T19:06:25.019Z,13.02
2023-04-17T19:11:30.992Z,13.57
2023-04-17T19:16:34.822Z,13.60
2023-04-17T19:21:38.396Z,12.95
2023-04-17T19:26:43.423Z,12.95
2023-04-17T19:31:46.860Z,12.60
2023-04-17T19:36:50.379Z,12.88
2023-04-17T19:41:55.498Z,14.27
2023-04-17T19:46:59.029Z,14.70
2023-04-17T19:52:02.424Z,14.20
2023-04-17T19:57:07.809Z,14.85
2023-04-17T20:02:12.389Z,14.65
2023-04-17T20:07:16.092Z,15.68
2023-04-17T20:12:21.119Z,15.75
2023-04-17T20:17:25.219Z,14.30
2023-04-17T20:22:28.643Z,16.13
2023-04-17T20:27:33.402Z,15.40
2023-04-17T20:32:36.849Z,14.48
2023-04-17T20:37:44.300Z,14.38
2023-04-17T20:42:49.782Z,16.08
2023-04-17T20:47:56.887Z,14.80
2023-04-17T20:53:00.891Z,15.02
2023-04-17T20:58:06.510Z,14.75
2023-04-17T21:03:10.484Z,16.55
2023-04-17T21:08:13.976Z,15.50
2023-04-17T21:13:19.333Z,15.27
2023-04-17T21:18:22.772Z,17.17
2023-04-17T21:23:26.564Z,17.60
2023-04-17T21:28:31.392Z,18.55
2023-04-17T21:33:36.565Z,17.48
2023-04-17T21:38:40.057Z,18.75
2023-04-17T21:43:44.857Z,18.00
2023-04-17T21:48:48.269Z,18.25
2023-04-17T21:53:51.711Z,20.05
2023-04-17T21:58:57.646Z,17.55
2023-04-17T22:04:01.146Z,21.52
2023-04-17T22:09:05.207Z,17.33
2023-04-17T22:14:10.041Z,17.80
2023-04-17T22:19:13.501Z,17.90
2023-04-17T22:25:11.934Z,17.40
2023-04-17T22:31:10.454Z,16.52
2023-04-17T22:37:08.739Z,16.38
2023-04-17T22:43:07.323Z,15.35
2023-04-17T22:49:05.790Z,15.80
2023-04-17T22:55:04.247Z,17.42
2023-04-17T23:01:02.584Z,16.58
2023-04-17T23:07:00.850Z,15.85
2023-04-17T23:12:07.128Z,15.80
2023-04-17T23:17:10.661Z,17.58
2023-04-17T23:22:14.069Z,17.02
2023-04-17T23:27:18.818Z,17.98
2023-04-17T23:32:22.700Z,18.02
2023-04-17T23:37:26.579Z,18.30
2023-04-17T23:42:31.307Z,18.67
2023-04-17T23:47:34.733Z,19.85
2023-04-17T23:52:38.459Z,18.40
2023-04-17T23:57:43.521Z,20.17
